Time;durP1;ratioP1;P1;durP2;ratioP2;P2;SDS_P1;SDS_P2;PMS_P1;PMS_P2;Temp;Humidity;BMP_temperature;BMP_pressure;BME280_temperature;BME280_humidity;BME280_pressure;Samples;Min_cycle;Max_cycle;Signal;HPM_P1;HPM_P2
2023/02/26 00:01:22;;;;;;;3.08;1.83;;;5.30;79.00;;;;;;4879714;29;20131;-80
2023/02/26 00:03:52;;;;;;;1.95;1.83;;;5.30;79.00;;;;;;4880334;29;20489;-82
2023/02/26 00:06:19;;;;;;;2.20;2.00;;;5.30;79.00;;;;;;4879788;29;20100;-80
2023/02/26 00:08:44;;;;;;;2.03;1.80;;;5.30;79.00;;;;;;4879503;29;20044;-81
2023/02/26 00:11:11;;;;;;;2.92;2.05;;;5.30;79.00;;;;;;4879258;29;20037;-83
2023/02/26 00:13:38;;;;;;;2.03;1.75;;;5.30;79.00;;;;;;4879533;29;20058;-82
2023/02/26 00:16:16;;;;;;;2.25;2.00;;;5.20;79.00;;;;;;4879969;29;20041;-81
2023/02/26 00:18:42;;;;;;;2.17;1.80;;;5.20;79.10;;;;;;4864284;29;20093;-87
2023/02/26 00:21:21;;;;;;;2.38;2.00;;;5.20;79.00;;;;;;4863988;29;20021;-80
2023/02/26 00:23:47;;;;;;;2.72;2.00;;;5.20;79.10;;;;;;4862304;29;20103;-80
2023/02/26 00:26:13;;;;;;;2.45;1.90;;;5.10;79.00;;;;;;4864501;29;20456;-81
2023/02/26 00:28:40;;;;;;;2.45;1.80;;;5.20;79.10;;;;;;4863965;29;20040;-81
2023/02/26 00:31:07;;;;;;;3.10;2.20;;;5.10;79.00;;;;;;4864210;29;20379;-80
2023/02/26 00:33:33;;;;;;;3.47;1.88;;;5.10;79.10;;;;;;4864241;29;20112;-81
2023/02/26 00:36:32;;;;;;;4.28;1.92;;;5.10;79.00;;;;;;4863495;29;20136;-80
2023/02/26 00:39:31;;;;;;;2.67;1.90;;;5.10;79.10;;;;;;4870895;29;20056;-80
2023/02/26 00:41:57;;;;;;;2.05;1.85;;;5.10;79.10;;;;;;4863961;29;20494;-81
2023/02/26 00:44:23;;;;;;;2.17;1.95;;;5.00;79.10;;;;;;4862847;29;20084;-80
2023/02/26 00:46:56;;;;;;;3.08;2.10;;;5.00;79.10;;;;;;4863326;29;20037;-79
2023/02/26 00:49:27;;;;;;;3.10;1.95;;;5.00;79.10;;;;;;4863241;29;20169;-80
2023/02/26 00:51:58;;;;;;;2.70;2.20;;;5.00;79.10;;;;;;4863195;29;20040;-83
2023/02/26 00:54:26;;;;;;;2.20;1.90;;;5.00;79.20;;;;;;4863414;29;20049;-83
2023/02/26 00:56:53;;;;;;;2.55;1.98;;;5.00;79.10;;;;;;4878816;29;20036;-81
2023/02/26 00:59:21;;;;;;;2.45;2.03;;;5.00;79.20;;;;;;4878658;29;20037;-80
2023/02/26 01:01:47;;;;;;;2.45;1.90;;;4.90;79.10;;;;;;4863034;29;20053;-81
2023/02/26 01:04:15;;;;;;;3.22;1.80;;;4.90;79.10;;;;;;4863361;29;20041;-80
2023/02/26 01:06:45;;;;;;;2.50;1.90;;;4.90;79.10;;;;;;4847784;29;20033;-81
2023/02/26 01:09:27;;;;;;;2.38;1.63;;;4.90;79.20;;;;;;4863190;29;20029;-81
2023/02/26 01:12:00;;;;;;;2.00;1.80;;;4.90;79.20;;;;;;4878484;29;20028;-80
2023/02/26 01:14:27;;;;;;;1.90;1.80;;;4.80;79.10;;;;;;4863014;29;20025;-81
2023/02/26 01:17:18;;;;;;;2.75;1.98;;;4.80;79.10;;;;;;4847925;29;20084;-81
2023/02/26 01:20:15;;;;;;;3.03;2.65;;;4.80;79.10;;;;;;4878719;29;20212;-80
2023/02/26 01:22:53;;;;;;;2.33;1.98;;;4.80;79.10;;;;;;4876884;29;20040;-85
2023/02/26 01:25:22;;;;;;;2.45;1.90;;;4.80;79.10;;;;;;4878574;29;20043;-79
2023/02/26 01:27:49;;;;;;;2.45;1.80;;;4.70;79.10;;;;;;4863340;29;20064;-80
2023/02/26 01:30:15;;;;;;;2.50;1.70;;;4.70;79.10;;;;;;4863837;29;20059;-80
2023/02/26 01:33:13;;;;;;;3.55;2.03;;;4.70;79.10;;;;;;4863391;29;20037;-82
2023/02/26 01:35:39;;;;;;;2.45;2.08;;;4.70;79.10;;;;;;4879046;29;20363;-83
2023/02/26 01:38:38;;;;;;;2.15;1.95;;;4.70;79.10;;;;;;4863038;29;20025;-80
2023/02/26 01:41:42;;;;;;;2.17;1.88;;;4.70;79.20;;;;;;4879144;29;20044;-81
2023/02/26 01:44:14;;;;;;;2.10;1.80;;;4.60;79.10;;;;;;4877997;29;20056;-80
2023/02/26 01:47:01;;;;;;;2.33;1.90;;;4.60;79.10;;;;;;4862778;29;20037;-84
2023/02/26 01:49:28;;;;;;;2.17;1.98;;;4.60;79.20;;;;;;4879035;29;20474;-80
2023/02/26 01:51:57;;;;;;;3.00;2.10;;;4.60;79.20;;;;;;4877964;29;20025;-83
2023/02/26 01:54:43;;;;;;;2.33;2.13;;;4.60;79.20;;;;;;4878159;29;20098;-83
2023/02/26 01:57:13;;;;;;;3.88;2.05;;;4.60;79.20;;;;;;4865482;29;20427;-80
2023/02/26 01:59:43;;;;;;;1.92;1.70;;;4.60;79.20;;;;;;4881515;29;20484;-80
2023/02/26 02:02:11;;;;;;;2.13;1.88;;;4.60;79.20;;;;;;4883300;29;20100;-79
2023/02/26 02:04:39;;;;;;;2.10;1.90;;;4.60;79.20;;;;;;4881748;29;20131;-79
2023/02/26 02:07:05;;;;;;;2.67;1.80;;;4.50;79.20;;;;;;4881825;29;20128;-80
2023/02/26 02:09:31;;;;;;;2.03;1.80;;;4.50;79.20;;;;;;4881843;29;20033;-80
2023/02/26 02:12:38;;;;;;;2.40;1.80;;;4.50;79.20;;;;;;4881915;29;20085;-80
2023/02/26 02:15:28;;;;;;;2.10;1.80;;;4.50;79.20;;;;;;4881748;29;20033;-80
2023/02/26 02:18:22;;;;;;;1.92;1.75;;;4.50;79.20;;;;;;4866261;29;20478;-80
2023/02/26 02:21:21;;;;;;;2.38;1.90;;;4.40;79.20;;;;;;4881653;29;20033;-80
2023/02/26 02:24:17;;;;;;;1.85;1.60;;;4.40;79.20;;;;;;4883124;29;20037;-80
2023/02/26 02:26:58;;;;;;;2.20;1.75;;;4.40;79.20;;;;;;4881748;29;20037;-80
2023/02/26 02:30:00;;;;;;;2.70;1.60;;;4.40;79.20;;;;;;4881729;29;20486;-80
2023/02/26 02:32:58;;;;;;;1.98;1.77;;;4.40;79.20;;;;;;4882080;29;20037;-80
2023/02/26 02:35:48;;;;;;;2.75;2.03;;;4.30;79.20;;;;;;4880691;29;20041;-80
2023/02/26 02:38:20;;;;;;;3.13;1.98;;;4.40;79.20;;;;;;4882219;29;20057;-80
2023/02/26 02:40:51;;;;;;;2.92;1.73;;;4.30;79.20;;;;;;4881477;29;20040;-82
2023/02/26 02:43:23;;;;;;;2.65;2.10;;;4.30;79.20;;;;;;4881486;29;20466;-80
2023/02/26 02:45:57;;;;;;;2.13;1.92;;;4.30;79.20;;;;;;4881268;29;20048;-80
2023/02/26 02:48:28;;;;;;;1.80;1.70;;;4.30;79.20;;;;;;4881102;29;20033;-83
2023/02/26 02:51:16;;;;;;;1.90;1.73;;;4.30;79.20;;;;;;4880693;29;20039;-79
2023/02/26 02:53:50;;;;;;;2.03;1.80;;;4.30;79.20;;;;;;4865768;29;20081;-83
2023/02/26 02:56:27;;;;;;;2.08;1.88;;;4.30;79.20;;;;;;4880922;29;20437;-80
2023/02/26 02:59:00;;;;;;;2.42;1.98;;;4.30;79.20;;;;;;4881116;29;20033;-87
2023/02/26 03:01:27;;;;;;;2.13;1.85;;;4.30;79.20;;;;;;4880978;29;20398;-80
2023/02/26 03:04:06;;;;;;;1.90;1.80;;;4.20;79.20;;;;;;4866015;29;20029;-81
2023/02/26 03:06:32;;;;;;;2.15;1.70;;;4.20;79.20;;;;;;4865462;29;20064;-80
2023/02/26 03:08:59;;;;;;;2.28;1.88;;;4.20;79.20;;;;;;4849005;29;20458;-80
2023/02/26 03:11:26;;;;;;;2.35;1.85;;;4.20;79.20;;;;;;4880638;29;20033;-80
2023/02/26 03:13:53;;;;;;;2.17;1.98;;;4.20;79.20;;;;;;4880731;29;20080;-79
2023/02/26 03:16:44;;;;;;;2.08;1.88;;;4.20;79.20;;;;;;4851942;29;20041;-82
2023/02/26 03:19:42;;;;;;;1.90;1.70;;;4.20;79.20;;;;;;4865593;29;20052;-80
2023/02/26 03:22:16;;;;;;;2.67;1.63;;;4.10;79.20;;;;;;4879696;29;20093;-81
2023/02/26 03:25:14;;;;;;;1.77;1.67;;;4.10;79.80;;;;;;4880990;29;20041;-80
2023/02/26 03:27:57;;;;;;;2.38;1.73;;;4.10;79.20;;;;;;4865236;29;20071;-89
2023/02/26 03:30:25;;;;;;;2.92;2.10;;;4.10;79.20;;;;;;4880612;29;20060;-80
2023/02/26 03:33:16;;;;;;;2.10;1.90;;;4.00;79.10;;;;;;4864794;29;20478;-80
2023/02/26 03:35:53;;;;;;;2.42;1.60;;;4.00;79.20;;;;;;4864764;29;20037;-83
2023/02/26 03:38:41;;;;;;;2.55;2.08;;;4.00;79.20;;;;;;4864981;29;20029;-81
2023/02/26 03:41:11;;;;;;;2.83;1.80;;;4.00;79.20;;;;;;4864875;29;20456;-79
2023/02/26 03:43:46;;;;;;;1.98;1.80;;;4.00;79.20;;;;;;4864905;29;20029;-82
2023/02/26 03:46:21;;;;;;;1.80;1.60;;;4.00;79.20;;;;;;4864713;29;20466;-79
2023/02/26 03:48:50;;;;;;;2.33;1.92;;;4.00;79.20;;;;;;4864684;29;20037;-80
2023/02/26 03:51:18;;;;;;;1.95;1.80;;;3.90;79.20;;;;;;4879845;29;20543;-80
2023/02/26 03:53:50;;;;;;;1.70;1.60;;;3.90;79.20;;;;;;4864649;29;20130;-79
2023/02/26 03:56:30;;;;;;;1.70;1.60;;;3.90;79.20;;;;;;4865076;29;20482;-79
2023/02/26 03:59:16;;;;;;;1.70;1.60;;;3.90;79.20;;;;;;4880168;29;20124;-79
2023/02/26 04:02:58;;;;;;;2.45;1.85;;;3.90;79.20;;;;;;4866542;29;20139;-80
2023/02/26 04:05:32;;;;;;;2.78;1.70;;;3.80;79.20;;;;;;4872012;29;20049;-79
2023/02/26 04:07:58;;;;;;;1.97;1.70;;;3.80;79.20;;;;;;4848112;29;20041;-79
2023/02/26 04:10:38;;;;;;;1.85;1.60;;;3.80;79.10;;;;;;4863970;29;20049;-81
2023/02/26 04:13:04;;;;;;;2.13;2.00;;;3.80;79.20;;;;;;4879935;29;20036;-79
2023/02/26 04:15:30;;;;;;;1.67;1.58;;;3.80;79.20;;;;;;4864177;29;20032;-79
2023/02/26 04:17:56;;;;;;;1.95;1.85;;;3.80;79.20;;;;;;4849366;29;20099;-80
2023/02/26 04:20:21;;;;;;;1.90;1.80;;;3.70;79.20;;;;;;4864157;29;20032;-80
2023/02/26 04:22:47;;;;;;;2.35;1.75;;;3.80;79.20;;;;;;4863812;29;20040;-81
2023/02/26 04:25:13;;;;;;;2.28;1.80;;;3.70;79.20;;;;;;4848432;29;20441;-79
2023/02/26 04:27:39;;;;;;;2.15;1.80;;;3.70;79.10;;;;;;4863802;29;20029;-82
2023/02/26 04:30:05;;;;;;;2.20;2.00;;;3.70;79.10;;;;;;4879579;29;20051;-81
2023/02/26 04:32:31;;;;;;;2.03;1.80;;;3.70;79.20;;;;;;4879415;29;20037;-79
2023/02/26 04:34:57;;;;;;;2.15;2.00;;;3.70;79.20;;;;;;4879127;29;20039;-79
2023/02/26 04:37:23;;;;;;;2.58;1.90;;;3.60;79.70;;;;;;4879148;29;20033;-81
2023/02/26 04:39:49;;;;;;;2.47;1.73;;;3.60;79.10;;;;;;4848107;29;20034;-80
2023/02/26 04:42:15;;;;;;;2.00;1.80;;;3.70;79.20;;;;;;4863927;29;20041;-79
2023/02/26 04:44:40;;;;;;;1.92;1.80;;;3.60;79.10;;;;;;4848046;29;20386;-79
2023/02/26 04:47:06;;;;;;;2.97;1.67;;;3.60;79.10;;;;;;4848951;29;20481;-79
2023/02/26 04:49:34;;;;;;;1.92;1.80;;;3.60;79.10;;;;;;4879254;29;20041;-79
2023/02/26 04:52:00;;;;;;;1.70;1.60;;;3.60;79.10;;;;;;4863445;29;20116;-79
2023/02/26 04:54:26;;;;;;;2.08;1.88;;;3.50;79.10;;;;;;4848046;29;20032;-82
2023/02/26 04:56:52;;;;;;;2.08;1.70;;;3.50;79.10;;;;;;4879852;29;20037;-79
2023/02/26 04:59:18;;;;;;;2.83;1.90;;;3.50;79.10;;;;;;4847710;29;20055;-83
2023/02/26 05:01:44;;;;;;;1.83;1.65;;;3.50;79.10;;;;;;4847644;29;20059;-79
2023/02/26 05:04:10;;;;;;;1.70;1.60;;;3.50;79.10;;;;;;4878699;29;20041;-79
2023/02/26 05:06:36;;;;;;;1.95;1.70;;;3.50;79.10;;;;;;4847939;29;20108;-79
2023/02/26 05:09:03;;;;;;;1.60;1.50;;;3.50;79.10;;;;;;4878736;29;20096;-80
2023/02/26 05:11:29;;;;;;;1.88;1.50;;;3.50;79.20;;;;;;4848027;29;20132;-79
2023/02/26 05:13:55;;;;;;;2.45;1.80;;;3.50;79.10;;;;;;4863806;29;20459;-79
2023/02/26 05:16:21;;;;;;;1.77;1.65;;;3.40;79.10;;;;;;4879443;29;20483;-79
2023/02/26 05:18:46;;;;;;;1.90;1.73;;;3.40;79.10;;;;;;4878652;29;20037;-81
2023/02/26 05:21:12;;;;;;;2.33;1.77;;;3.40;79.10;;;;;;4847792;29;20029;-79
2023/02/26 05:23:38;;;;;;;2.10;1.90;;;3.40;79.10;;;;;;4862808;29;20037;-78
2023/02/26 05:26:04;;;;;;;1.95;1.73;;;3.40;79.00;;;;;;4863000;29;20076;-79
2023/02/26 05:28:30;;;;;;;1.60;1.50;;;3.40;79.00;;;;;;4878639;29;20033;-79
2023/02/26 05:30:57;;;;;;;1.60;1.50;;;3.40;79.00;;;;;;4880192;29;20091;-79
2023/02/26 05:33:23;;;;;;;1.92;1.83;;;3.40;79.00;;;;;;4885470;29;20025;-83
2023/02/26 05:35:49;;;;;;;1.95;1.70;;;3.30;78.90;;;;;;4869140;29;20401;-81
2023/02/26 05:38:18;;;;;;;2.22;1.85;;;3.30;78.90;;;;;;4869199;29;20029;-80
2023/02/26 05:40:43;;;;;;;1.65;1.55;;;3.30;78.90;;;;;;4884694;29;20033;-79
2023/02/26 05:43:09;;;;;;;1.70;1.60;;;3.30;78.90;;;;;;4869653;29;20362;-81
2023/02/26 05:45:35;;;;;;;2.03;1.80;;;3.30;78.80;;;;;;4885711;29;20049;-80
2023/02/26 05:48:01;;;;;;;1.85;1.70;;;3.30;78.80;;;;;;4869053;29;20112;-79
2023/02/26 05:50:26;;;;;;;1.70;1.60;;;3.30;78.80;;;;;;4869071;29;20069;-79
2023/02/26 05:52:52;;;;;;;1.73;1.63;;;3.30;78.80;;;;;;4884287;29;20025;-80
2023/02/26 05:55:18;;;;;;;2.03;1.77;;;3.30;78.80;;;;;;4885052;29;20390;-80
2023/02/26 05:57:45;;;;;;;1.73;1.63;;;3.30;78.80;;;;;;4853433;29;20053;-79
2023/02/26 06:00:12;;;;;;;3.53;1.83;;;3.30;78.80;;;;;;4853539;29;20036;-79
2023/02/26 06:02:41;;;;;;;2.13;1.60;;;3.30;78.80;;;;;;4885726;29;20044;-82
2023/02/26 06:05:08;;;;;;;2.22;1.63;;;3.30;78.80;;;;;;4885822;29;20116;-80
2023/02/26 06:07:33;;;;;;;2.75;1.90;;;3.30;78.80;;;;;;4885690;29;20029;-79
2023/02/26 06:10:00;;;;;;;1.67;1.45;;;3.20;78.70;;;;;;4868788;29;20510;-78
2023/02/26 06:12:26;;;;;;;1.83;1.60;;;3.20;78.70;;;;;;4884286;29;20029;-79
2023/02/26 06:14:51;;;;;;;1.55;1.45;;;3.20;78.70;;;;;;4869065;29;20453;-85
2023/02/26 06:17:17;;;;;;;2.53;1.85;;;3.20;78.70;;;;;;4868896;29;20029;-80
2023/02/26 06:19:44;;;;;;;1.70;1.60;;;3.20;78.70;;;;;;4868644;29;20092;-78
2023/02/26 06:22:09;;;;;;;1.83;1.73;;;3.20;78.70;;;;;;4884860;29;20485;-79
2023/02/26 06:24:35;;;;;;;2.05;1.83;;;3.20;78.70;;;;;;4883823;29;20033;-82
2023/02/26 06:27:01;;;;;;;1.95;1.63;;;3.20;78.70;;;;;;4883951;29;20498;-80
2023/02/26 06:29:27;;;;;;;2.13;1.55;;;3.20;78.70;;;;;;4884747;29;20037;-80
2023/02/26 06:31:52;;;;;;;1.83;1.60;;;3.20;78.60;;;;;;4868282;29;20479;-83
2023/02/26 06:34:18;;;;;;;1.95;1.77;;;3.20;78.60;;;;;;4884572;29;20074;-82
2023/02/26 06:36:44;;;;;;;1.65;1.52;;;3.20;78.60;;;;;;4869269;29;20041;-79
2023/02/26 06:39:11;;;;;;;1.77;1.67;;;3.20;78.60;;;;;;4883846;29;20116;-79
2023/02/26 06:41:37;;;;;;;2.65;1.77;;;3.20;78.60;;;;;;4853423;29;20466;-82
2023/02/26 06:44:03;;;;;;;3.88;1.70;;;3.20;78.60;;;;;;4864453;29;20045;-79
2023/02/26 06:46:29;;;;;;;1.70;1.60;;;3.20;78.60;;;;;;4865704;29;20044;-84
2023/02/26 06:48:54;;;;;;;1.83;1.73;;;3.10;78.50;;;;;;4881674;29;20056;-80
2023/02/26 06:51:20;;;;;;;1.50;1.40;;;3.10;78.60;;;;;;4865417;29;20025;-79
2023/02/26 06:53:46;;;;;;;2.03;1.70;;;3.10;78.60;;;;;;4866256;29;20037;-80
2023/02/26 06:56:11;;;;;;;2.05;1.85;;;3.10;78.60;;;;;;4850775;29;20420;-84
2023/02/26 06:58:37;;;;;;;2.17;1.85;;;3.10;78.60;;;;;;4850009;29;20127;-80
2023/02/26 07:01:04;;;;;;;1.98;1.80;;;3.10;78.60;;;;;;4880692;29;20061;-79
2023/02/26 07:03:30;;;;;;;2.05;1.88;;;3.10;78.60;;;;;;4880068;29;20061;-78
2023/02/26 07:05:56;;;;;;;1.60;1.50;;;3.10;78.60;;;;;;4880586;29;20040;-80
2023/02/26 07:08:22;;;;;;;1.60;1.50;;;3.10;78.60;;;;;;4866027;29;20047;-78
2023/02/26 07:10:51;;;;;;;1.80;1.70;;;3.10;78.60;;;;;;4880550;29;20034;-80
2023/02/26 07:13:17;;;;;;;1.98;1.63;;;3.10;78.60;;;;;;4849688;29;20499;-79
2023/02/26 07:15:43;;;;;;;2.20;1.95;;;3.10;78.50;;;;;;4865282;29;20037;-78
2023/02/26 07:18:09;;;;;;;1.90;1.80;;;3.10;78.50;;;;;;4880587;29;20072;-79
2023/02/26 07:20:35;;;;;;;2.55;1.90;;;3.10;78.50;;;;;;4865776;29;20041;-78
2023/02/26 07:23:01;;;;;;;1.52;1.40;;;3.10;78.50;;;;;;4880397;29;20557;-79
2023/02/26 07:25:27;;;;;;;1.83;1.60;;;3.10;78.50;;;;;;4880104;29;20048;-79
2023/02/26 07:27:53;;;;;;;1.63;1.50;;;3.00;78.40;;;;;;4881476;29;20033;-79
2023/02/26 07:30:19;;;;;;;2.00;1.80;;;3.10;78.50;;;;;;4880206;29;20033;-78
2023/02/26 07:32:45;;;;;;;1.88;1.63;;;3.10;78.50;;;;;;4865624;29;20035;-78
2023/02/26 07:35:11;;;;;;;1.98;1.50;;;3.10;78.50;;;;;;4864830;29;20101;-83
2023/02/26 07:37:37;;;;;;;1.67;1.58;;;3.10;78.50;;;;;;4865008;29;20055;-81
2023/02/26 07:40:03;;;;;;;1.70;1.60;;;3.10;78.50;;;;;;4864605;29;20568;-79
2023/02/26 07:42:29;;;;;;;1.73;1.63;;;3.10;78.50;;;;;;4881221;29;20440;-79
2023/02/26 07:44:55;;;;;;;1.50;1.40;;;3.10;78.50;;;;;;4864568;29;20045;-80
2023/02/26 07:47:20;;;;;;;1.88;1.77;;;3.10;78.50;;;;;;4864873;29;20120;-80
2023/02/26 07:49:46;;;;;;;2.75;2.00;;;3.10;78.40;;;;;;4849146;29;20037;-80
2023/02/26 07:52:12;;;;;;;1.90;1.58;;;3.10;78.40;;;;;;4880665;29;20037;-80
2023/02/26 07:54:38;;;;;;;1.77;1.67;;;3.10;78.40;;;;;;4864109;29;20124;-81
2023/02/26 07:57:04;;;;;;;1.70;1.60;;;3.10;78.40;;;;;;4879836;29;20525;-79
2023/02/26 07:59:30;;;;;;;2.28;1.60;;;3.10;78.80;;;;;;4881168;29;20029;-80
2023/02/26 08:01:56;;;;;;;2.80;2.08;;;3.10;78.40;;;;;;4863961;29;20201;-79
2023/02/26 08:04:22;;;;;;;1.92;1.60;;;3.10;78.40;;;;;;4864043;29;20044;-80
2023/02/26 08:06:47;;;;;;;2.72;1.80;;;3.10;78.40;;;;;;4879361;29;20048;-79
2023/02/26 08:09:13;;;;;;;1.77;1.67;;;3.10;78.40;;;;;;4864120;29;20431;-80
2023/02/26 08:11:42;;;;;;;1.95;1.75;;;3.10;78.40;;;;;;4879705;29;20041;-80
2023/02/26 08:14:08;;;;;;;1.73;1.60;;;3.10;78.40;;;;;;4879730;29;20033;-80
2023/02/26 08:16:34;;;;;;;1.70;1.60;;;3.10;78.30;;;;;;4879655;29;20033;-80
2023/02/26 08:19:00;;;;;;;2.05;1.48;;;3.10;78.40;;;;;;4848269;29;20093;-80
2023/02/26 08:21:25;;;;;;;2.28;2.00;;;3.20;78.40;;;;;;4863840;29;20021;-79
2023/02/26 08:23:51;;;;;;;2.00;1.65;;;3.20;78.40;;;;;;4879431;29;20120;-80
2023/02/26 08:26:17;;;;;;;1.60;1.50;;;3.20;78.30;;;;;;4848413;29;20061;-79
2023/02/26 08:28:45;;;;;;;1.80;1.70;;;3.20;78.40;;;;;;4879496;29;20041;-85
2023/02/26 08:31:11;;;;;;;1.77;1.67;;;3.20;79.00;;;;;;4863963;29;20454;-81
2023/02/26 08:33:37;;;;;;;2.30;1.73;;;3.20;78.30;;;;;;4879328;29;20044;-79
2023/02/26 08:36:03;;;;;;;1.73;1.63;;;3.20;78.30;;;;;;4848180;29;20029;-80
2023/02/26 08:38:30;;;;;;;2.10;1.90;;;3.20;78.30;;;;;;4863734;29;20036;-83
2023/02/26 08:40:56;;;;;;;2.22;2.00;;;3.20;78.30;;;;;;4863376;29;20051;-83
2023/02/26 08:43:22;;;;;;;2.10;2.00;;;3.20;78.30;;;;;;4863474;29;20025;-82
2023/02/26 08:45:50;;;;;;;1.88;1.73;;;3.20;78.30;;;;;;4863595;29;20033;-80
2023/02/26 08:48:16;;;;;;;2.30;2.00;;;3.20;78.30;;;;;;4878901;29;20103;-79
2023/02/26 08:50:42;;;;;;;1.92;1.80;;;3.30;78.30;;;;;;4863801;29;20506;-81
2023/02/26 08:53:08;;;;;;;1.92;1.77;;;3.30;78.30;;;;;;4878658;29;20029;-80
2023/02/26 08:55:33;;;;;;;1.90;1.80;;;3.30;78.30;;;;;;4878735;29;20037;-80
2023/02/26 08:57:59;;;;;;;2.88;1.60;;;3.30;78.30;;;;;;4863121;29;20033;-80
2023/02/26 09:00:25;;;;;;;1.70;1.60;;;3.30;78.30;;;;;;4863141;29;20044;-80
2023/02/26 09:02:51;;;;;;;2.00;1.80;;;3.30;78.30;;;;;;4862723;29;20052;-79
2023/02/26 09:05:17;;;;;;;1.50;1.40;;;3.30;78.30;;;;;;4878900;29;20395;-81
2023/02/26 09:07:43;;;;;;;2.03;1.70;;;3.30;78.30;;;;;;4877862;29;20045;-79
2023/02/26 09:10:10;;;;;;;2.60;1.70;;;3.30;78.30;;;;;;4862989;29;20029;-80
2023/02/26 09:12:36;;;;;;;2.20;2.00;;;3.30;78.30;;;;;;4878165;29;20049;-84
2023/02/26 09:15:03;;;;;;;1.80;1.70;;;3.40;78.40;;;;;;4862915;29;20071;-80
2023/02/26 09:17:30;;;;;;;1.60;1.50;;;3.40;78.40;;;;;;4863385;29;20021;-82
2023/02/26 09:19:56;;;;;;;1.83;1.60;;;3.40;78.40;;;;;;4878781;29;20476;-82
2023/02/26 09:22:22;;;;;;;2.47;1.77;;;3.40;78.30;;;;;;4878908;29;20120;-80
2023/02/26 09:24:47;;;;;;;2.67;1.75;;;3.40;78.30;;;;;;4863280;29;20115;-81
2023/02/26 09:27:13;;;;;;;1.85;1.60;;;3.50;78.30;;;;;;4848506;29;20086;-80
2023/02/26 09:29:39;;;;;;;1.73;1.63;;;3.50;78.30;;;;;;4878427;29;20537;-82
2023/02/26 09:32:07;;;;;;;1.63;1.52;;;3.50;78.30;;;;;;4878386;29;20033;-80
2023/02/26 09:34:37;;;;;;;1.63;1.42;;;3.50;78.30;;;;;;4847789;29;20057;-80
2023/02/26 09:37:08;;;;;;;1.73;1.63;;;3.60;78.40;;;;;;4878509;29;20029;-82
2023/02/26 09:39:35;;;;;;;3.00;1.85;;;3.60;78.30;;;;;;4878015;29;20055;-81
2023/02/26 09:42:30;;;;;;;2.55;2.00;;;3.60;78.30;;;;;;4879206;29;20033;-93
2023/02/26 09:44:58;;;;;;;1.80;1.70;;;3.70;78.20;;;;;;4879084;29;20029;-86
2023/02/26 09:47:36;;;;;;;1.92;1.60;;;3.70;78.00;;;;;;4863801;29;20032;-84
2023/02/26 09:50:17;;;;;;;1.65;1.55;;;3.80;77.70;;;;;;4879144;29;20112;-85
2023/02/26 09:52:55;;;;;;;2.72;1.80;;;3.80;77.50;;;;;;4864432;29;20354;-84
2023/02/26 09:55:42;;;;;;;1.63;1.50;;;3.90;77.20;;;;;;4879082;29;20085;-83
2023/02/26 09:58:31;;;;;;;3.20;1.70;;;4.00;77.00;;;;;;4878990;29;20029;-84
2023/02/26 10:01:05;;;;;;;2.08;1.45;;;4.00;76.80;;;;;;4879774;29;20029;-84
2023/02/26 10:03:37;;;;;;;2.83;1.70;;;4.10;76.60;;;;;;4879158;29;20049;-85
2023/02/26 10:06:14;;;;;;;4.55;1.70;;;4.10;76.40;;;;;;4864147;29;20033;-83
2023/02/26 10:09:05;;;;;;;2.03;1.85;;;4.20;76.20;;;;;;4878629;29;20068;-85
2023/02/26 10:11:59;;;;;;;1.60;1.50;;;4.30;76.10;;;;;;4863295;29;20021;-84
2023/02/26 10:14:40;;;;;;;1.65;1.52;;;4.30;75.80;;;;;;4863430;29;20025;-88
2023/02/26 10:17:25;;;;;;;1.65;1.55;;;4.40;75.80;;;;;;4864280;29;20056;-84
2023/02/26 10:19:55;;;;;;;1.73;1.60;;;4.40;75.60;;;;;;4882114;29;20068;-87
2023/02/26 10:22:56;;;;;;;1.55;1.45;;;4.40;75.60;;;;;;4866170;29;20029;-85
2023/02/26 10:25:51;;;;;;;1.67;1.58;;;4.50;75.40;;;;;;4881401;29;20036;-88
2023/02/26 10:28:55;;;;;;;1.60;1.50;;;4.60;75.30;;;;;;4879722;29;20037;-85
2023/02/26 10:31:46;;;;;;;1.55;1.45;;;4.60;75.00;;;;;;4881885;29;20025;-83
2023/02/26 10:34:18;;;;;;;2.03;1.73;;;4.70;75.00;;;;;;4865304;29;20037;-86
2023/02/26 10:36:51;;;;;;;2.70;1.52;;;4.70;74.70;;;;;;4866472;29;20036;-84
2023/02/26 10:39:28;;;;;;;1.50;1.40;;;4.80;75.20;;;;;;4866706;29;20051;-85
2023/02/26 10:41:57;;;;;;;1.50;1.40;;;4.90;74.50;;;;;;4866762;29;20041;-84
2023/02/26 10:44:53;;;;;;;1.80;1.60;;;4.90;74.40;;;;;;4881974;29;20025;-84
2023/02/26 10:47:53;;;;;;;1.85;1.60;;;5.00;74.30;;;;;;4865699;29;20052;-90
2023/02/26 10:50:21;;;;;;;1.58;1.40;;;5.10;74.20;;;;;;4866174;29;20029;-84
2023/02/26 10:52:49;;;;;;;2.67;1.40;;;5.10;74.20;;;;;;4866492;29;20017;-85
2023/02/26 10:55:37;;;;;;;1.77;1.50;;;5.20;74.10;;;;;;4882393;29;20124;-85
2023/02/26 10:58:32;;;;;;;1.55;1.45;;;5.30;73.90;;;;;;4882853;29;20098;-84
2023/02/26 11:00:58;;;;;;;2.97;2.00;;;5.30;73.90;;;;;;4877325;29;20037;-86
2023/02/26 11:03:48;;;;;;;1.45;1.35;;;5.30;73.90;;;;;;4881904;29;20508;-87
2023/02/26 11:06:23;;;;;;;1.73;1.50;;;5.40;73.80;;;;;;4881640;29;20032;-85
2023/02/26 11:08:53;;;;;;;1.60;1.50;;;5.50;73.70;;;;;;4866370;29;20033;-84
2023/02/26 11:11:44;;;;;;;2.17;1.60;;;5.50;73.60;;;;;;4866359;29;20021;-84
2023/02/26 11:14:10;;;;;;;1.58;1.48;;;5.60;73.50;;;;;;4865736;29;20057;-86
2023/02/26 11:16:46;;;;;;;1.60;1.50;;;5.60;73.50;;;;;;4866145;29;20060;-85
2023/02/26 11:19:14;;;;;;;1.73;1.52;;;5.70;73.40;;;;;;4882469;29;20032;-89
2023/02/26 11:21:42;;;;;;;1.70;1.60;;;5.80;73.40;;;;;;4850333;29;20029;-84
2023/02/26 11:24:18;;;;;;;1.77;1.58;;;5.80;73.30;;;;;;4865828;29;20064;-86
2023/02/26 11:26:48;;;;;;;2.42;1.83;;;5.80;73.10;;;;;;4882229;29;20044;-85
2023/02/26 11:29:20;;;;;;;2.00;1.60;;;5.90;73.10;;;;;;4865634;29;20057;-87
2023/02/26 11:32:00;;;;;;;2.75;1.60;;;5.90;73.00;;;;;;4865641;29;20481;-86
2023/02/26 11:34:26;;;;;;;2.17;1.65;;;5.90;72.80;;;;;;4865467;29;20025;-85
2023/02/26 11:36:56;;;;;;;1.42;1.33;;;6.00;72.80;;;;;;4865500;29;20039;-87
2023/02/26 11:39:25;;;;;;;1.60;1.50;;;6.00;72.60;;;;;;4881490;29;20073;-88
2023/02/26 11:41:58;;;;;;;2.75;1.50;;;6.00;72.50;;;;;;4865841;29;20036;-90
2023/02/26 11:44:34;;;;;;;1.48;1.38;;;6.00;72.30;;;;;;4865605;29;20458;-90
2023/02/26 11:47:13;;;;;;;1.65;1.55;;;6.10;72.10;;;;;;4865479;29;20037;-85
2023/02/26 11:49:43;;;;;;;1.52;1.42;;;6.20;72.10;;;;;;4881348;29;20033;-83
2023/02/26 11:52:10;;;;;;;2.10;1.52;;;6.20;72.00;;;;;;4865054;29;20025;-88
2023/02/26 11:54:38;;;;;;;1.42;1.33;;;6.20;72.10;;;;;;4864900;29;20053;-88
2023/02/26 11:57:19;;;;;;;1.67;1.58;;;6.20;72.10;;;;;;4880621;29;20381;-85
2023/02/26 11:59:50;;;;;;;1.65;1.48;;;6.30;71.90;;;;;;4865568;29;20025;-84
2023/02/26 12:02:21;;;;;;;1.92;1.50;;;6.30;71.90;;;;;;4880441;29;20044;-86
2023/02/26 12:04:55;;;;;;;1.95;1.55;;;6.30;71.90;;;;;;4865538;29;20059;-88
2023/02/26 12:07:22;;;;;;;2.15;1.55;;;6.40;71.70;;;;;;4880377;29;20466;-89
2023/02/26 12:09:48;;;;;;;2.72;1.92;;;6.40;71.70;;;;;;4865134;29;20044;-86
2023/02/26 12:12:46;;;;;;;1.50;1.40;;;6.40;71.60;;;;;;4880060;29;20112;-89
2023/02/26 12:15:18;;;;;;;1.90;1.30;;;6.40;71.50;;;;;;4865109;29;20033;-87
2023/02/26 12:17:53;;;;;;;1.50;1.40;;;6.50;71.60;;;;;;4880263;29;20033;-85
2023/02/26 12:20:35;;;;;;;1.83;1.20;;;6.50;71.50;;;;;;4864787;29;20027;-85
2023/02/26 12:23:16;;;;;;;1.52;1.42;;;6.60;71.50;;;;;;4864910;29;20025;-87
2023/02/26 12:25:52;;;;;;;1.42;1.33;;;6.60;71.40;;;;;;4864757;29;20124;-87
2023/02/26 12:28:49;;;;;;;1.40;1.30;;;6.60;71.30;;;;;;4880383;29;20460;-85
2023/02/26 12:31:27;;;;;;;1.80;1.40;;;6.60;71.10;;;;;;4881065;29;20057;-84
2023/02/26 12:34:02;;;;;;;1.40;1.30;;;6.70;71.20;;;;;;4880393;29;20037;-85
2023/02/26 12:36:54;;;;;;;2.00;1.50;;;6.70;71.10;;;;;;4879925;29;20074;-86
2023/02/26 12:39:38;;;;;;;1.40;1.30;;;6.80;71.00;;;;;;4865140;29;20033;-84
2023/02/26 12:42:35;;;;;;;1.63;1.48;;;6.80;70.70;;;;;;4863578;29;20120;-87
2023/02/26 12:45:36;;;;;;;1.20;1.20;;;6.80;70.70;;;;;;4880136;29;20116;-90
2023/02/26 12:48:08;;;;;;;3.58;1.38;;;6.90;70.70;;;;;;4880581;29;20032;-89
2023/02/26 12:50:55;;;;;;;1.65;1.30;;;6.90;70.60;;;;;;4865219;29;20029;-88
2023/02/26 12:53:45;;;;;;;1.52;1.40;;;7.00;70.50;;;;;;4879808;29;20029;-88
2023/02/26 12:56:39;;;;;;;5.78;1.45;;;7.00;70.40;;;;;;4864643;29;20092;-88
2023/02/26 12:59:11;;;;;;;1.98;1.40;;;7.00;70.60;;;;;;4865178;29;20029;-91
2023/02/26 13:02:19;;;;;;;3.00;1.52;;;7.10;70.60;;;;;;4867215;29;20135;-91
2023/02/26 13:05:06;;;;;;;1.65;1.23;;;7.10;70.60;;;;;;4880275;29;20071;-90
2023/02/26 13:07:55;;;;;;;1.52;1.30;;;7.20;70.40;;;;;;4867068;29;20043;-93
2023/02/26 13:10:40;;;;;;;1.38;1.27;;;7.20;70.40;;;;;;4882356;29;20029;-92
2023/02/26 13:13:20;;;;;;;2.00;1.20;;;7.30;70.50;;;;;;4864514;29;20084;-90
2023/02/26 13:16:06;;;;;;;1.17;1.00;;;7.30;70.40;;;;;;4864258;29;20127;-91
2023/02/26 13:19:02;;;;;;;2.42;1.20;;;7.30;70.40;;;;;;4881015;29;20029;-93
2023/02/26 13:21:36;;;;;;;1.60;1.20;;;7.30;70.50;;;;;;4881331;29;20514;-84
2023/02/26 13:24:09;;;;;;;1.38;1.27;;;7.40;70.50;;;;;;4880751;29;20523;-90
2023/02/26 13:26:35;;;;;;;1.10;1.10;;;7.40;70.50;;;;;;4881246;29;20090;-95
2023/02/26 13:29:17;;;;;;;2.45;1.45;;;7.40;70.30;;;;;;4864385;29;20489;-93